Barrhead, Canada
Current Conditions -  °F | °C
As of 1:00 AM on Saturday 25 Oct 2014 (Local Time) from CZVL Reporting Station
Clear Clear  
Wind Chill: 34°   Ceiling: Unl
Heat Index: 39°   Visibility: 9mi
Dew Point: 23°   Wind: 8mph
Humidity: 52%   Direction: 270°W
Pressure: 29.99"   Gusts: NA
Location:  54.12°N, 114.4°W
Report Text: CZVL 250700Z AUTO 27007KT 9SM CLR 04/M05 A2999 RMK SLP175
Loading
Personal Weather Stations






























Interactive Weather Map
Tropical Storm Tracking
New forecast layout! Learn more

10-Day Weather Forecast

Advertisements
Track Severe Weather on mobile